sensor_id;sensor_type;location;lat;lon;timestamp;P1;durP1;ratioP1;P2;durP2;ratioP2
8297;SDS011;4187;42.778;23.242;2023-03-03T00:00:54;8.20;;;7.50;;
8297;SDS011;4187;42.778;23.242;2023-03-03T00:03:21;6.00;;;5.50;;
8297;SDS011;4187;42.778;23.242;2023-03-03T00:05:50;4.67;;;3.97;;
8297;SDS011;4187;42.778;23.242;2023-03-03T00:08:17;5.00;;;3.93;;
8297;SDS011;4187;42.778;23.242;2023-03-03T00:10:44;3.83;;;3.43;;
8297;SDS011;4187;42.778;23.242;2023-03-03T00:13:12;4.33;;;3.67;;
8297;SDS011;4187;42.778;23.242;2023-03-03T00:15:43;4.20;;;3.80;;
8297;SDS011;4187;42.778;23.242;2023-03-03T00:18:16;3.80;;;3.37;;
8297;SDS011;4187;42.778;23.242;2023-03-03T00:20:48;3.67;;;3.00;;
8297;SDS011;4187;42.778;23.242;2023-03-03T00:23:19;3.43;;;3.03;;
8297;SDS011;4187;42.778;23.242;2023-03-03T00:26:00;3.10;;;2.80;;
8297;SDS011;4187;42.778;23.242;2023-03-03T00:28:29;3.07;;;2.60;;
8297;SDS011;4187;42.778;23.242;2023-03-03T00:30:59;3.40;;;3.10;;
8297;SDS011;4187;42.778;23.242;2023-03-03T00:33:28;3.33;;;2.63;;
8297;SDS011;4187;42.778;23.242;2023-03-03T00:36:08;3.03;;;2.70;;
8297;SDS011;4187;42.778;23.242;2023-03-03T00:38:47;3.30;;;3.00;;
8297;SDS011;4187;42.778;23.242;2023-03-03T00:41:15;3.40;;;3.10;;
8297;SDS011;4187;42.778;23.242;2023-03-03T00:43:47;3.27;;;2.83;;
8297;SDS011;4187;42.778;23.242;2023-03-03T00:46:16;3.10;;;2.80;;
8297;SDS011;4187;42.778;23.242;2023-03-03T00:48:44;3.60;;;2.97;;
8297;SDS011;4187;42.778;23.242;2023-03-03T00:51:18;4.40;;;3.93;;
8297;SDS011;4187;42.778;23.242;2023-03-03T00:53:52;3.77;;;3.40;;
8297;SDS011;4187;42.778;23.242;2023-03-03T00:56:19;3.73;;;3.03;;
8297;SDS011;4187;42.778;23.242;2023-03-03T00:58:46;3.77;;;3.43;;
8297;SDS011;4187;42.778;23.242;2023-03-03T01:01:13;3.43;;;2.83;;
8297;SDS011;4187;42.778;23.242;2023-03-03T01:03:41;3.43;;;3.13;;
8297;SDS011;4187;42.778;23.242;2023-03-03T01:06:09;4.00;;;3.50;;
8297;SDS011;4187;42.778;23.242;2023-03-03T01:08:36;3.40;;;3.10;;
8297;SDS011;4187;42.778;23.242;2023-03-03T01:11:04;3.83;;;3.27;;
8297;SDS011;4187;42.778;23.242;2023-03-03T01:13:34;3.97;;;3.50;;
8297;SDS011;4187;42.778;23.242;2023-03-03T01:16:02;4.13;;;3.57;;
8297;SDS011;4187;42.778;23.242;2023-03-03T01:18:30;4.50;;;3.73;;
8297;SDS011;4187;42.778;23.242;2023-03-03T01:20:58;3.50;;;3.10;;
8297;SDS011;4187;42.778;23.242;2023-03-03T01:23:26;5.17;;;3.73;;
8297;SDS011;4187;42.778;23.242;2023-03-03T01:25:53;4.43;;;3.77;;
8297;SDS011;4187;42.778;23.242;2023-03-03T01:28:20;3.83;;;3.40;;
8297;SDS011;4187;42.778;23.242;2023-03-03T01:30:47;4.50;;;3.70;;
8297;SDS011;4187;42.778;23.242;2023-03-03T01:33:15;3.87;;;3.33;;
8297;SDS011;4187;42.778;23.242;2023-03-03T01:35:42;3.53;;;2.90;;
8297;SDS011;4187;42.778;23.242;2023-03-03T01:38:11;3.93;;;3.60;;
8297;SDS011;4187;42.778;23.242;2023-03-03T01:40:39;3.90;;;3.30;;
8297;SDS011;4187;42.778;23.242;2023-03-03T01:43:06;3.93;;;3.53;;
8297;SDS011;4187;42.778;23.242;2023-03-03T01:45:40;6.33;;;4.13;;
8297;SDS011;4187;42.778;23.242;2023-03-03T01:48:30;4.30;;;3.50;;
8297;SDS011;4187;42.778;23.242;2023-03-03T01:51:00;4.93;;;3.33;;
8297;SDS011;4187;42.778;23.242;2023-03-03T01:53:32;3.90;;;3.40;;
8297;SDS011;4187;42.778;23.242;2023-03-03T01:56:01;4.70;;;4.20;;
8297;SDS011;4187;42.778;23.242;2023-03-03T01:58:30;3.97;;;3.47;;
8297;SDS011;4187;42.778;23.242;2023-03-03T02:01:00;3.50;;;3.13;;
8297;SDS011;4187;42.778;23.242;2023-03-03T02:03:30;6.27;;;4.13;;
8297;SDS011;4187;42.778;23.242;2023-03-03T02:05:58;4.70;;;4.20;;
8297;SDS011;4187;42.778;23.242;2023-03-03T02:08:33;4.47;;;4.03;;
8297;SDS011;4187;42.778;23.242;2023-03-03T02:11:07;6.43;;;4.87;;
8297;SDS011;4187;42.778;23.242;2023-03-03T02:13:35;4.40;;;4.00;;
8297;SDS011;4187;42.778;23.242;2023-03-03T02:16:02;4.67;;;4.23;;
8297;SDS011;4187;42.778;23.242;2023-03-03T02:18:29;5.00;;;3.53;;
8297;SDS011;4187;42.778;23.242;2023-03-03T02:20:56;4.13;;;3.43;;
8297;SDS011;4187;42.778;23.242;2023-03-03T02:23:28;6.60;;;4.77;;
8297;SDS011;4187;42.778;23.242;2023-03-03T02:28:48;5.77;;;5.17;;
8297;SDS011;4187;42.778;23.242;2023-03-03T02:31:16;6.10;;;4.60;;
8297;SDS011;4187;42.778;23.242;2023-03-03T02:33:45;4.27;;;3.87;;
8297;SDS011;4187;42.778;23.242;2023-03-03T02:36:15;4.20;;;3.77;;
8297;SDS011;4187;42.778;23.242;2023-03-03T02:38:45;4.73;;;3.93;;
8297;SDS011;4187;42.778;23.242;2023-03-03T02:41:19;5.43;;;4.90;;
8297;SDS011;4187;42.778;23.242;2023-03-03T02:43:55;5.67;;;4.90;;
8297;SDS011;4187;42.778;23.242;2023-03-03T02:46:25;5.60;;;5.00;;
8297;SDS011;4187;42.778;23.242;2023-03-03T02:48:52;5.87;;;4.77;;
8297;SDS011;4187;42.778;23.242;2023-03-03T02:51:19;4.90;;;4.03;;
8297;SDS011;4187;42.778;23.242;2023-03-03T02:53:46;4.40;;;4.00;;
8297;SDS011;4187;42.778;23.242;2023-03-03T02:56:13;4.90;;;4.07;;
8297;SDS011;4187;42.778;23.242;2023-03-03T02:58:41;6.37;;;4.30;;
8297;SDS011;4187;42.778;23.242;2023-03-03T03:01:07;6.03;;;4.67;;
8297;SDS011;4187;42.778;23.242;2023-03-03T03:03:34;4.57;;;4.07;;
8297;SDS011;4187;42.778;23.242;2023-03-03T03:06:01;5.63;;;5.03;;
8297;SDS011;4187;42.778;23.242;2023-03-03T03:08:28;5.57;;;4.83;;
8297;SDS011;4187;42.778;23.242;2023-03-03T03:10:55;5.77;;;4.97;;
8297;SDS011;4187;42.778;23.242;2023-03-03T03:13:22;5.10;;;4.60;;
8297;SDS011;4187;42.778;23.242;2023-03-03T03:15:50;4.93;;;4.43;;
8297;SDS011;4187;42.778;23.242;2023-03-03T03:18:17;5.33;;;4.70;;
8297;SDS011;4187;42.778;23.242;2023-03-03T03:20:44;5.10;;;4.60;;
8297;SDS011;4187;42.778;23.242;2023-03-03T03:23:11;5.23;;;4.70;;
8297;SDS011;4187;42.778;23.242;2023-03-03T03:25:38;4.80;;;4.20;;
8297;SDS011;4187;42.778;23.242;2023-03-03T03:28:09;4.50;;;4.10;;
8297;SDS011;4187;42.778;23.242;2023-03-03T03:30:36;6.17;;;5.50;;
8297;SDS011;4187;42.778;23.242;2023-03-03T03:33:05;5.90;;;4.97;;
8297;SDS011;4187;42.778;23.242;2023-03-03T03:35:34;5.63;;;4.53;;
8297;SDS011;4187;42.778;23.242;2023-03-03T03:38:01;6.80;;;4.67;;
8297;SDS011;4187;42.778;23.242;2023-03-03T03:40:29;5.70;;;5.07;;
8297;SDS011;4187;42.778;23.242;2023-03-03T03:42:55;6.10;;;5.00;;
8297;SDS011;4187;42.778;23.242;2023-03-03T03:45:22;6.10;;;4.77;;
8297;SDS011;4187;42.778;23.242;2023-03-03T03:47:49;6.53;;;5.73;;
8297;SDS011;4187;42.778;23.242;2023-03-03T03:50:17;6.07;;;5.13;;
8297;SDS011;4187;42.778;23.242;2023-03-03T03:52:44;5.90;;;5.40;;
8297;SDS011;4187;42.778;23.242;2023-03-03T03:55:11;9.60;;;6.77;;
8297;SDS011;4187;42.778;23.242;2023-03-03T03:57:39;7.80;;;6.00;;
8297;SDS011;4187;42.778;23.242;2023-03-03T04:00:06;6.13;;;5.53;;
8297;SDS011;4187;42.778;23.242;2023-03-03T04:02:35;6.50;;;5.40;;
8297;SDS011;4187;42.778;23.242;2023-03-03T04:05:02;7.83;;;5.97;;
8297;SDS011;4187;42.778;23.242;2023-03-03T04:07:31;6.87;;;6.17;;
8297;SDS011;4187;42.778;23.242;2023-03-03T04:09:58;8.43;;;6.30;;
8297;SDS011;4187;42.778;23.242;2023-03-03T04:12:25;11.63;;;6.50;;
8297;SDS011;4187;42.778;23.242;2023-03-03T04:14:52;10.00;;;7.47;;
8297;SDS011;4187;42.778;23.242;2023-03-03T04:17:19;10.20;;;7.30;;
8297;SDS011;4187;42.778;23.242;2023-03-03T04:19:51;12.73;;;9.10;;
8297;SDS011;4187;42.778;23.242;2023-03-03T04:22:17;10.23;;;7.53;;
8297;SDS011;4187;42.778;23.242;2023-03-03T04:24:46;10.00;;;7.53;;
8297;SDS011;4187;42.778;23.242;2023-03-03T04:27:13;14.40;;;9.47;;
8297;SDS011;4187;42.778;23.242;2023-03-03T04:29:40;13.60;;;9.60;;
8297;SDS011;4187;42.778;23.242;2023-03-03T04:32:07;12.27;;;9.47;;
8297;SDS011;4187;42.778;23.242;2023-03-03T04:34:34;12.47;;;8.67;;
8297;SDS011;4187;42.778;23.242;2023-03-03T04:37:01;8.80;;;7.27;;
8297;SDS011;4187;42.778;23.242;2023-03-03T04:39:28;7.30;;;6.07;;
8297;SDS011;4187;42.778;23.242;2023-03-03T04:41:56;7.83;;;6.17;;
8297;SDS011;4187;42.778;23.242;2023-03-03T04:44:23;6.20;;;5.50;;
8297;SDS011;4187;42.778;23.242;2023-03-03T04:46:50;6.50;;;5.80;;
8297;SDS011;4187;42.778;23.242;2023-03-03T04:49:16;6.17;;;5.57;;
8297;SDS011;4187;42.778;23.242;2023-03-03T04:51:43;6.13;;;5.40;;
8297;SDS011;4187;42.778;23.242;2023-03-03T04:54:10;6.70;;;6.00;;
8297;SDS011;4187;42.778;23.242;2023-03-03T04:56:37;9.23;;;5.90;;
8297;SDS011;4187;42.778;23.242;2023-03-03T04:59:05;7.03;;;6.07;;
8297;SDS011;4187;42.778;23.242;2023-03-03T05:01:32;6.10;;;5.50;;
8297;SDS011;4187;42.778;23.242;2023-03-03T05:03:59;6.87;;;6.03;;
8297;SDS011;4187;42.778;23.242;2023-03-03T05:06:27;6.97;;;5.80;;
8297;SDS011;4187;42.778;23.242;2023-03-03T05:08:54;5.93;;;5.43;;
8297;SDS011;4187;42.778;23.242;2023-03-03T05:11:20;6.40;;;5.60;;
8297;SDS011;4187;42.778;23.242;2023-03-03T05:13:47;7.93;;;6.37;;
8297;SDS011;4187;42.778;23.242;2023-03-03T05:16:16;7.17;;;6.07;;
8297;SDS011;4187;42.778;23.242;2023-03-03T05:18:42;8.20;;;6.43;;
8297;SDS011;4187;42.778;23.242;2023-03-03T05:21:09;7.57;;;6.77;;
8297;SDS011;4187;42.778;23.242;2023-03-03T05:23:36;8.60;;;6.37;;
8297;SDS011;4187;42.778;23.242;2023-03-03T05:26:03;8.40;;;7.47;;
8297;SDS011;4187;42.778;23.242;2023-03-03T05:28:30;8.43;;;7.27;;
8297;SDS011;4187;42.778;23.242;2023-03-03T05:30:57;9.67;;;7.93;;
8297;SDS011;4187;42.778;23.242;2023-03-03T05:33:25;10.43;;;7.90;;
8297;SDS011;4187;42.778;23.242;2023-03-03T05:35:53;9.33;;;7.67;;
8297;SDS011;4187;42.778;23.242;2023-03-03T05:38:20;10.20;;;7.63;;
8297;SDS011;4187;42.778;23.242;2023-03-03T05:40:47;9.90;;;7.17;;
8297;SDS011;4187;42.778;23.242;2023-03-03T05:43:14;10.27;;;8.80;;
8297;SDS011;4187;42.778;23.242;2023-03-03T05:45:41;12.20;;;9.37;;
8297;SDS011;4187;42.778;23.242;2023-03-03T05:48:08;22.43;;;14.90;;
8297;SDS011;4187;42.778;23.242;2023-03-03T05:50:36;20.60;;;13.33;;
8297;SDS011;4187;42.778;23.242;2023-03-03T05:53:03;20.23;;;14.23;;
8297;SDS011;4187;42.778;23.242;2023-03-03T05:55:30;11.87;;;9.60;;
8297;SDS011;4187;42.778;23.242;2023-03-03T05:57:57;11.87;;;8.63;;
8297;SDS011;4187;42.778;23.242;2023-03-03T06:00:24;10.33;;;8.93;;
8297;SDS011;4187;42.778;23.242;2023-03-03T06:02:51;9.83;;;8.07;;
8297;SDS011;4187;42.778;23.242;2023-03-03T06:05:18;10.47;;;8.80;;
8297;SDS011;4187;42.778;23.242;2023-03-03T06:07:46;9.87;;;7.77;;
8297;SDS011;4187;42.778;23.242;2023-03-03T06:10:13;8.13;;;7.03;;
8297;SDS011;4187;42.778;23.242;2023-03-03T06:12:40;9.37;;;8.10;;
8297;SDS011;4187;42.778;23.242;2023-03-03T06:15:07;8.23;;;7.37;;
8297;SDS011;4187;42.778;23.242;2023-03-03T06:17:35;11.03;;;8.27;;
8297;SDS011;4187;42.778;23.242;2023-03-03T06:20:02;8.90;;;8.00;;
8297;SDS011;4187;42.778;23.242;2023-03-03T06:22:29;7.90;;;7.10;;
8297;SDS011;4187;42.778;23.242;2023-03-03T06:24:57;9.43;;;7.40;;
8297;SDS011;4187;42.778;23.242;2023-03-03T06:27:24;9.30;;;6.53;;
8297;SDS011;4187;42.778;23.242;2023-03-03T06:29:51;8.50;;;7.00;;
8297;SDS011;4187;42.778;23.242;2023-03-03T06:32:18;8.63;;;6.67;;
8297;SDS011;4187;42.778;23.242;2023-03-03T06:34:45;8.50;;;7.57;;
8297;SDS011;4187;42.778;23.242;2023-03-03T06:37:12;8.80;;;7.50;;
8297;SDS011;4187;42.778;23.242;2023-03-03T06:39:39;9.00;;;8.00;;
8297;SDS011;4187;42.778;23.242;2023-03-03T06:42:07;8.90;;;7.43;;
8297;SDS011;4187;42.778;23.242;2023-03-03T06:44:34;9.70;;;8.70;;
8297;SDS011;4187;42.778;23.242;2023-03-03T06:47:02;10.00;;;7.73;;
8297;SDS011;4187;42.778;23.242;2023-03-03T06:49:30;9.27;;;7.40;;
8297;SDS011;4187;42.778;23.242;2023-03-03T06:51:57;9.17;;;8.23;;
8297;SDS011;4187;42.778;23.242;2023-03-03T06:54:27;9.40;;;8.33;;
8297;SDS011;4187;42.778;23.242;2023-03-03T06:56:55;10.80;;;8.50;;
8297;SDS011;4187;42.778;23.242;2023-03-03T06:59:26;16.60;;;11.70;;
8297;SDS011;4187;42.778;23.242;2023-03-03T07:01:53;12.17;;;9.10;;
8297;SDS011;4187;42.778;23.242;2023-03-03T07:04:23;9.37;;;8.17;;
8297;SDS011;4187;42.778;23.242;2023-03-03T07:06:55;8.67;;;7.77;;
8297;SDS011;4187;42.778;23.242;2023-03-03T07:09:23;8.83;;;7.97;;
8297;SDS011;4187;42.778;23.242;2023-03-03T07:11:51;11.60;;;9.60;;
8297;SDS011;4187;42.778;23.242;2023-03-03T07:14:22;10.40;;;8.67;;
8297;SDS011;4187;42.778;23.242;2023-03-03T07:16:55;12.37;;;10.00;;
8297;SDS011;4187;42.778;23.242;2023-03-03T07:19:28;10.63;;;9.53;;
8297;SDS011;4187;42.778;23.242;2023-03-03T07:21:59;9.17;;;7.20;;
8297;SDS011;4187;42.778;23.242;2023-03-03T07:24:31;9.57;;;8.00;;
8297;SDS011;4187;42.778;23.242;2023-03-03T07:26:58;9.13;;;7.63;;
8297;SDS011;4187;42.778;23.242;2023-03-03T07:29:31;9.20;;;7.53;;
8297;SDS011;4187;42.778;23.242;2023-03-03T07:32:01;8.20;;;7.40;;
8297;SDS011;4187;42.778;23.242;2023-03-03T07:34:29;9.93;;;8.00;;
8297;SDS011;4187;42.778;23.242;2023-03-03T07:37:03;11.07;;;9.23;;
8297;SDS011;4187;42.778;23.242;2023-03-03T07:39:39;10.50;;;9.33;;
8297;SDS011;4187;42.778;23.242;2023-03-03T07:44:54;10.97;;;8.30;;
8297;SDS011;4187;42.778;23.242;2023-03-03T07:47:24;11.37;;;7.50;;
8297;SDS011;4187;42.778;23.242;2023-03-03T07:49:53;8.73;;;7.67;;
8297;SDS011;4187;42.778;23.242;2023-03-03T07:52:25;9.13;;;8.23;;
8297;SDS011;4187;42.778;23.242;2023-03-03T07:54:55;16.40;;;10.17;;
8297;SDS011;4187;42.778;23.242;2023-03-03T07:57:24;10.93;;;9.83;;
8297;SDS011;4187;42.778;23.242;2023-03-03T07:59:53;9.53;;;8.53;;
8297;SDS011;4187;42.778;23.242;2023-03-03T08:02:38;10.47;;;8.80;;
8297;SDS011;4187;42.778;23.242;2023-03-03T08:08:18;11.00;;;8.80;;
8297;SDS011;4187;42.778;23.242;2023-03-03T08:10:54;9.60;;;8.60;;
8297;SDS011;4187;42.778;23.242;2023-03-03T08:13:22;10.03;;;8.73;;
8297;SDS011;4187;42.778;23.242;2023-03-03T08:15:54;9.60;;;7.87;;
8297;SDS011;4187;42.778;23.242;2023-03-03T08:18:28;10.13;;;7.73;;
8297;SDS011;4187;42.778;23.242;2023-03-03T08:21:00;9.33;;;8.43;;
8297;SDS011;4187;42.778;23.242;2023-03-03T08:23:30;9.40;;;8.00;;
8297;SDS011;4187;42.778;23.242;2023-03-03T08:25:57;10.63;;;8.57;;
8297;SDS011;4187;42.778;23.242;2023-03-03T08:28:24;8.80;;;7.77;;
8297;SDS011;4187;42.778;23.242;2023-03-03T08:30:51;9.70;;;8.60;;
8297;SDS011;4187;42.778;23.242;2023-03-03T08:33:18;12.07;;;9.73;;
8297;SDS011;4187;42.778;23.242;2023-03-03T08:35:46;11.73;;;9.80;;
8297;SDS011;4187;42.778;23.242;2023-03-03T08:38:14;11.33;;;10.13;;
8297;SDS011;4187;42.778;23.242;2023-03-03T08:40:43;9.93;;;8.77;;
8297;SDS011;4187;42.778;23.242;2023-03-03T08:43:10;11.47;;;10.27;;
8297;SDS011;4187;42.778;23.242;2023-03-03T08:45:41;11.37;;;9.87;;
8297;SDS011;4187;42.778;23.242;2023-03-03T08:48:09;11.67;;;10.47;;
8297;SDS011;4187;42.778;23.242;2023-03-03T08:50:36;10.30;;;8.80;;
8297;SDS011;4187;42.778;23.242;2023-03-03T08:53:05;16.00;;;11.60;;
8297;SDS011;4187;42.778;23.242;2023-03-03T08:55:32;15.23;;;11.87;;
8297;SDS011;4187;42.778;23.242;2023-03-03T08:57:59;11.77;;;9.43;;
8297;SDS011;4187;42.778;23.242;2023-03-03T09:00:26;11.10;;;9.70;;
8297;SDS011;4187;42.778;23.242;2023-03-03T09:02:53;10.57;;;9.47;;
8297;SDS011;4187;42.778;23.242;2023-03-03T09:05:20;11.27;;;10.07;;
8297;SDS011;4187;42.778;23.242;2023-03-03T09:07:48;10.43;;;9.10;;
8297;SDS011;4187;42.778;23.242;2023-03-03T09:10:19;11.20;;;9.50;;
8297;SDS011;4187;42.778;23.242;2023-03-03T09:12:52;14.30;;;12.37;;
8297;SDS011;4187;42.778;23.242;2023-03-03T09:15:23;13.50;;;11.97;;
8297;SDS011;4187;42.778;23.242;2023-03-03T09:17:52;14.00;;;10.73;;
8297;SDS011;4187;42.778;23.242;2023-03-03T09:20:21;12.50;;;9.87;;
8297;SDS011;4187;42.778;23.242;2023-03-03T09:22:52;12.30;;;9.60;;
8297;SDS011;4187;42.778;23.242;2023-03-03T09:25:23;12.37;;;10.10;;
8297;SDS011;4187;42.778;23.242;2023-03-03T09:27:57;14.00;;;11.30;;
8297;SDS011;4187;42.778;23.242;2023-03-03T09:33:19;13.90;;;10.40;;
8297;SDS011;4187;42.778;23.242;2023-03-03T09:35:53;10.17;;;9.03;;
8297;SDS011;4187;42.778;23.242;2023-03-03T09:38:28;13.73;;;11.80;;
8297;SDS011;4187;42.778;23.242;2023-03-03T09:44:18;11.33;;;9.10;;
8297;SDS011;4187;42.778;23.242;2023-03-03T09:47:01;9.17;;;8.17;;
8297;SDS011;4187;42.778;23.242;2023-03-03T09:49:38;11.53;;;9.63;;
8297;SDS011;4187;42.778;23.242;2023-03-03T09:52:20;12.73;;;9.40;;
8297;SDS011;4187;42.778;23.242;2023-03-03T09:54:55;11.00;;;9.13;;
8297;SDS011;4187;42.778;23.242;2023-03-03T09:57:33;11.70;;;9.67;;
8297;SDS011;4187;42.778;23.242;2023-03-03T10:00:17;10.70;;;8.93;;
8297;SDS011;4187;42.778;23.242;2023-03-03T10:02:58;10.73;;;8.63;;
8297;SDS011;4187;42.778;23.242;2023-03-03T10:05:47;10.70;;;8.80;;
8297;SDS011;4187;42.778;23.242;2023-03-03T10:08:26;11.67;;;8.97;;
8297;SDS011;4187;42.778;23.242;2023-03-03T10:11:06;10.90;;;8.80;;
8297;SDS011;4187;42.778;23.242;2023-03-03T10:13:52;12.93;;;9.80;;
8297;SDS011;4187;42.778;23.242;2023-03-03T10:16:41;13.73;;;10.50;;
8297;SDS011;4187;42.778;23.242;2023-03-03T10:19:21;20.20;;;14.53;;
8297;SDS011;4187;42.778;23.242;2023-03-03T10:21:59;11.27;;;8.90;;
8297;SDS011;4187;42.778;23.242;2023-03-03T10:24:42;12.90;;;10.73;;
8297;SDS011;4187;42.778;23.242;2023-03-03T10:27:18;13.13;;;11.23;;
8297;SDS011;4187;42.778;23.242;2023-03-03T10:29:56;10.93;;;9.40;;
8297;SDS011;4187;42.778;23.242;2023-03-03T10:32:35;12.67;;;9.23;;
8297;SDS011;4187;42.778;23.242;2023-03-03T10:38:14;9.37;;;8.40;;
8297;SDS011;4187;42.778;23.242;2023-03-03T10:40:53;10.45;;;9.10;;
8297;SDS011;4187;42.778;23.242;2023-03-03T10:43:31;8.73;;;7.82;;
8297;SDS011;4187;42.778;23.242;2023-03-03T10:46:27;9.03;;;8.13;;
8297;SDS011;4187;42.778;23.242;2023-03-03T10:49:21;8.80;;;8.00;;
8297;SDS011;4187;42.778;23.242;2023-03-03T10:52:01;8.03;;;7.23;;
8297;SDS011;4187;42.778;23.242;2023-03-03T10:54:39;9.07;;;7.10;;
8297;SDS011;4187;42.778;23.242;2023-03-03T10:57:16;9.18;;;8.05;;
8297;SDS011;4187;42.778;23.242;2023-03-03T10:59:57;9.70;;;8.70;;
8297;SDS011;4187;42.778;23.242;2023-03-03T11:02:35;10.50;;;8.88;;
8297;SDS011;4187;42.778;23.242;2023-03-03T11:05:18;10.38;;;8.18;;
8297;SDS011;4187;42.778;23.242;2023-03-03T11:07:55;11.70;;;8.98;;
8297;SDS011;4187;42.778;23.242;2023-03-03T11:10:38;10.93;;;9.15;;
8297;SDS011;4187;42.778;23.242;2023-03-03T11:13:19;9.88;;;8.88;;
8297;SDS011;4187;42.778;23.242;2023-03-03T11:15:56;9.82;;;8.82;;
8297;SDS011;4187;42.778;23.242;2023-03-03T11:18:36;11.68;;;9.65;;
8297;SDS011;4187;42.778;23.242;2023-03-03T11:21:20;10.20;;;9.13;;
8297;SDS011;4187;42.778;23.242;2023-03-03T11:23:57;9.85;;;8.70;;
8297;SDS011;4187;42.778;23.242;2023-03-03T11:26:33;12.88;;;9.02;;
8297;SDS011;4187;42.778;23.242;2023-03-03T11:29:14;8.35;;;7.55;;
8297;SDS011;4187;42.778;23.242;2023-03-03T11:31:54;9.75;;;8.75;;
8297;SDS011;4187;42.778;23.242;2023-03-03T11:34:32;9.90;;;8.90;;
8297;SDS011;4187;42.778;23.242;2023-03-03T11:37:12;13.57;;;10.13;;
8297;SDS011;4187;42.778;23.242;2023-03-03T11:39:45;11.18;;;9.55;;
8297;SDS011;4187;42.778;23.242;2023-03-03T11:42:16;12.82;;;11.52;;
8297;SDS011;4187;42.778;23.242;2023-03-03T11:44:50;9.82;;;8.90;;
8297;SDS011;4187;42.778;23.242;2023-03-03T11:47:23;9.47;;;8.50;;
8297;SDS011;4187;42.778;23.242;2023-03-03T11:49:53;10.10;;;9.10;;
8297;SDS011;4187;42.778;23.242;2023-03-03T11:52:30;9.35;;;8.45;;
8297;SDS011;4187;42.778;23.242;2023-03-03T11:55:05;10.02;;;9.02;;
8297;SDS011;4187;42.778;23.242;2023-03-03T11:57:38;9.13;;;8.05;;
8297;SDS011;4187;42.778;23.242;2023-03-03T12:00:17;8.77;;;7.88;;
8297;SDS011;4187;42.778;23.242;2023-03-03T12:02:59;9.85;;;8.85;;
8297;SDS011;4187;42.778;23.242;2023-03-03T12:05:45;9.70;;;8.48;;
8297;SDS011;4187;42.778;23.242;2023-03-03T12:08:25;16.77;;;12.90;;
8297;SDS011;4187;42.778;23.242;2023-03-03T12:11:13;23.85;;;18.02;;
8297;SDS011;4187;42.778;23.242;2023-03-03T12:13:49;17.40;;;12.48;;
8297;SDS011;4187;42.778;23.242;2023-03-03T12:16:23;27.02;;;16.88;;
8297;SDS011;4187;42.778;23.242;2023-03-03T12:25:07;12.20;;;10.13;;
8297;SDS011;4187;42.778;23.242;2023-03-03T12:27:46;16.83;;;12.02;;
8297;SDS011;4187;42.778;23.242;2023-03-03T12:30:19;19.63;;;13.05;;
8297;SDS011;4187;42.778;23.242;2023-03-03T12:33:04;14.52;;;11.15;;
8297;SDS011;4187;42.778;23.242;2023-03-03T12:35:44;14.57;;;10.57;;
8297;SDS011;4187;42.778;23.242;2023-03-03T12:38:22;20.67;;;14.27;;
8297;SDS011;4187;42.778;23.242;2023-03-03T12:41:04;13.63;;;10.97;;
8297;SDS011;4187;42.778;23.242;2023-03-03T12:43:40;15.38;;;11.60;;
8297;SDS011;4187;42.778;23.242;2023-03-03T12:46:15;11.90;;;9.15;;
8297;SDS011;4187;42.778;23.242;2023-03-03T12:48:48;11.67;;;9.97;;
8297;SDS011;4187;42.778;23.242;2023-03-03T12:51:17;11.80;;;9.90;;
8297;SDS011;4187;42.778;23.242;2023-03-03T12:54:01;14.97;;;13.10;;
8297;SDS011;4187;42.778;23.242;2023-03-03T12:56:59;15.23;;;13.67;;
8297;SDS011;4187;42.778;23.242;2023-03-03T12:59:37;15.10;;;13.10;;
8297;SDS011;4187;42.778;23.242;2023-03-03T13:02:19;16.50;;;13.67;;
8297;SDS011;4187;42.778;23.242;2023-03-03T13:05:01;20.43;;;16.23;;
8297;SDS011;4187;42.778;23.242;2023-03-03T13:07:37;14.23;;;11.70;;
8297;SDS011;4187;42.778;23.242;2023-03-03T13:10:12;11.50;;;9.43;;
8297;SDS011;4187;42.778;23.242;2023-03-03T13:12:49;16.17;;;13.43;;
8297;SDS011;4187;42.778;23.242;2023-03-03T13:15:23;12.27;;;10.87;;
8297;SDS011;4187;42.778;23.242;2023-03-03T13:17:56;13.17;;;11.77;;
8297;SDS011;4187;42.778;23.242;2023-03-03T13:20:33;11.63;;;10.50;;
8297;SDS011;4187;42.778;23.242;2023-03-03T13:23:11;11.97;;;10.70;;
8297;SDS011;4187;42.778;23.242;2023-03-03T13:25:49;12.23;;;10.87;;
8297;SDS011;4187;42.778;23.242;2023-03-03T13:28:24;14.47;;;13.00;;
8297;SDS011;4187;42.778;23.242;2023-03-03T13:31:00;13.07;;;11.77;;
8297;SDS011;4187;42.778;23.242;2023-03-03T13:33:32;15.10;;;13.50;;
8297;SDS011;4187;42.778;23.242;2023-03-03T13:36:01;11.13;;;9.93;;
8297;SDS011;4187;42.778;23.242;2023-03-03T13:38:32;11.37;;;10.27;;
8297;SDS011;4187;42.778;23.242;2023-03-03T13:41:06;12.97;;;10.73;;
8297;SDS011;4187;42.778;23.242;2023-03-03T13:43:44;6.97;;;6.27;;
8297;SDS011;4187;42.778;23.242;2023-03-03T13:46:16;8.73;;;7.37;;
8297;SDS011;4187;42.778;23.242;2023-03-03T13:48:52;8.70;;;6.90;;
8297;SDS011;4187;42.778;23.242;2023-03-03T13:51:38;6.77;;;6.17;;
8297;SDS011;4187;42.778;23.242;2023-03-03T13:54:15;7.53;;;6.83;;
8297;SDS011;4187;42.778;23.242;2023-03-03T13:57:06;15.70;;;12.53;;
8297;SDS011;4187;42.778;23.242;2023-03-03T13:59:48;18.13;;;16.30;;
8297;SDS011;4187;42.778;23.242;2023-03-03T14:02:27;9.90;;;9.00;;
8297;SDS011;4187;42.778;23.242;2023-03-03T14:05:11;8.00;;;7.20;;
8297;SDS011;4187;42.778;23.242;2023-03-03T14:07:42;10.13;;;9.03;;
8297;SDS011;4187;42.778;23.242;2023-03-03T14:10:18;7.93;;;7.10;;
8297;SDS011;4187;42.778;23.242;2023-03-03T14:12:50;8.57;;;7.70;;
8297;SDS011;4187;42.778;23.242;2023-03-03T14:15:28;7.93;;;7.20;;
8297;SDS011;4187;42.778;23.242;2023-03-03T14:20:50;7.83;;;7.03;;
8297;SDS011;4187;42.778;23.242;2023-03-03T14:23:19;6.87;;;6.17;;
8297;SDS011;4187;42.778;23.242;2023-03-03T14:25:52;7.30;;;6.23;;
8297;SDS011;4187;42.778;23.242;2023-03-03T14:28:22;6.50;;;5.90;;
8297;SDS011;4187;42.778;23.242;2023-03-03T14:30:53;6.43;;;5.83;;
8297;SDS011;4187;42.778;23.242;2023-03-03T14:33:25;5.97;;;5.23;;
8297;SDS011;4187;42.778;23.242;2023-03-03T14:36:04;4.50;;;4.10;;
8297;SDS011;4187;42.778;23.242;2023-03-03T14:38:38;5.20;;;4.70;;
8297;SDS011;4187;42.778;23.242;2023-03-03T14:41:18;5.23;;;4.63;;
8297;SDS011;4187;42.778;23.242;2023-03-03T14:43:57;6.87;;;6.17;;
8297;SDS011;4187;42.778;23.242;2023-03-03T14:46:37;8.43;;;7.37;;
8297;SDS011;4187;42.778;23.242;2023-03-03T14:49:06;7.37;;;6.30;;
8297;SDS011;4187;42.778;23.242;2023-03-03T14:51:41;6.13;;;4.97;;
8297;SDS011;4187;42.778;23.242;2023-03-03T14:54:15;7.33;;;6.63;;
8297;SDS011;4187;42.778;23.242;2023-03-03T14:56:54;6.83;;;6.17;;
8297;SDS011;4187;42.778;23.242;2023-03-03T14:59:25;5.30;;;4.50;;
8297;SDS011;4187;42.778;23.242;2023-03-03T15:01:59;6.00;;;5.40;;
8297;SDS011;4187;42.778;23.242;2023-03-03T15:04:49;7.50;;;6.80;;
8297;SDS011;4187;42.778;23.242;2023-03-03T15:07:20;12.03;;;10.57;;
8297;SDS011;4187;42.778;23.242;2023-03-03T15:09:57;6.03;;;5.53;;
8297;SDS011;4187;42.778;23.242;2023-03-03T15:12:24;6.90;;;6.20;;
8297;SDS011;4187;42.778;23.242;2023-03-03T15:14:52;24.90;;;19.97;;
8297;SDS011;4187;42.778;23.242;2023-03-03T15:17:34;10.80;;;9.70;;
8297;SDS011;4187;42.778;23.242;2023-03-03T15:22:49;35.10;;;25.63;;
8297;SDS011;4187;42.778;23.242;2023-03-03T15:25:22;21.85;;;17.45;;
8297;SDS011;4187;42.778;23.242;2023-03-03T15:27:58;18.37;;;14.07;;
8297;SDS011;4187;42.778;23.242;2023-03-03T15:30:35;18.87;;;14.03;;
8297;SDS011;4187;42.778;23.242;2023-03-03T15:33:12;19.97;;;15.50;;
8297;SDS011;4187;42.778;23.242;2023-03-03T15:35:49;16.17;;;11.47;;
8297;SDS011;4187;42.778;23.242;2023-03-03T15:38:24;16.53;;;12.80;;
8297;SDS011;4187;42.778;23.242;2023-03-03T15:41:04;12.13;;;9.37;;
8297;SDS011;4187;42.778;23.242;2023-03-03T15:43:42;12.33;;;10.17;;
8297;SDS011;4187;42.778;23.242;2023-03-03T15:46:19;13.63;;;11.37;;
8297;SDS011;4187;42.778;23.242;2023-03-03T15:49:01;14.30;;;12.87;;
8297;SDS011;4187;42.778;23.242;2023-03-03T15:51:54;10.43;;;9.33;;